Skip to main content.

Nearby METAR Reports

 

KJYR - York, Nebraska, USA
Distance from station: NW 27mi, 43km
Updated: Wed, 15-Aug-2018 3:55am CDT
Mist, Clear
Mist, Clear
 Wind from NNW
Wind: NNW 3 mph , 6 km/h
Temperature: 63°F , 17°C
Dew Point: 63°F , 17°C
Humidity: 100%
Barometer: 29.94 inHg , 1013.9 hPa
Summary: Mist
Clouds: Clear
Visibility: 5 miles , 8 km
2018/08/15 08:55 KJYR 150855Z AUTO 34003KT 5SM BR CLR 17/17 A2994 RMK AO2
KLNK - Lincoln, Nebraska, USA
Distance from station: ENE 27mi, 44km
Updated: Wed, 15-Aug-2018 3:54am CDT
Light rain, Mist, Overcast
Light rain, Mist, Overcast
 Wind from N
Wind: N 14 mph , 22 km/h
Temperature: 68°F , 20°C
Dew Point: 66°F , 19°C
Humidity: 94%
Barometer: 29.90 inHg , 1012.5 hPa
Summary: Light rain, Mist
Clouds: Overcast
Visibility: 3 miles , 5 km
Cloud details: Overcast 700 ft
2018/08/15 08:54 KLNK 150854Z AUTO 35012KT 3SM -RA BR OVC007 20/19 A2990 RMK AO2 RAB07 CIG 004V009 SLP114 P0002 60002 T02000194 58002
 
KBIE - Beatrice Municip, Nebraska, USA
Distance from station: SE 36mi, 58km
Updated: Wed, 15-Aug-2018 3:55am CDT
Mist, Overcast
Mist, Overcast
 Wind from NNW
Wind: NNW 3 mph , 6 km/h
Temperature: 68°F , 20°C
Dew Point: 68°F , 20°C
Humidity: 100%
Barometer: 29.89 inHg , 1012.2 hPa
Summary: Mist
Clouds: Overcast
Visibility: 4 miles , 6 km
Cloud details: Overcast 1000 ft
2018/08/15 08:55 KBIE 150855Z AUTO 33003KT 4SM BR OVC010 20/20 A2989 RMK AO2 T02000197
KHJH - Hebron Muni, Nebraska, USA
Distance from station: SSW 40mi, 64km
Updated: Wed, 15-Aug-2018 3:55am CDT
Mist, Mostly cloudy
Mist, Mostly cloudy
 Wind from calm
Wind: Calm
Temperature: 66°F , 19°C
Dew Point: 64°F , 18°C
Humidity: 94%
Barometer: 29.93 inHg , 1013.5 hPa
Summary: Mist
Clouds: Mostly Cloudy
Visibility: 4 miles , 6 km
Cloud details: Mostly Cloudy 5500 ft
2018/08/15 08:55 KHJH 150855Z AUTO 00000KT 4SM BR BKN055 19/18 A2993 RMK AO2 T01850180
 
KAUH - Aurora, Nebraska, USA
Distance from station: WNW 44mi, 70km
Updated: Wed, 15-Aug-2018 3:55am CDT
Mist, Clear
Mist, Clear
 Wind from calm
Wind: Calm
Temperature: 61°F , 16°C
Dew Point: 61°F , 16°C
Humidity: 100%
Barometer: 29.95 inHg , 1014.2 hPa
Summary: Mist
Clouds: Clear
Visibility: 5 miles , 8 km
2018/08/15 08:55 KAUH 150855Z AUTO 00000KT 5SM BR CLR 16/16 A2995 RMK AO2 T01580158
KAHQ - Wahoo, Nebraska, USA
Distance from station: NE 51mi, 82km
Updated: Wed, 15-Aug-2018 3:55am CDT
Drizzle, Overcast
Drizzle, Overcast
 Wind from N
Wind: N 10 mph , 17 km/h, Gust: 16 mph , 26 km/h
Temperature: 68°F , 20°C
Dew Point: 68°F , 20°C
Humidity: 100%
Barometer: 29.91 inHg , 1012.9 hPa
Summary: Drizzle
Clouds: Overcast
Visibility: 7 miles , 11 km
Cloud details: Partly Cloudy 700 ft
Mostly Cloudy 6000 ft
Overcast 7500 ft
2018/08/15 08:55 KAHQ 150855Z AUTO 01009G14KT 7SM DZ SCT007 BKN060 OVC075 20/20 A2991 RMK AO2 P0006 60009 T01980196
 
KOLU - Columbus Muni, Nebraska, USA
Distance from station: N 55mi, 88km
Updated: Wed, 15-Aug-2018 3:56am CDT
Mist, Mostly cloudy
Mist, Mostly cloudy
 Wind from NNE
Wind: NNE 3 mph , 6 km/h
Temperature: 64°F , 18°C
Dew Point: 64°F , 18°C
Humidity: 100%
Barometer: 29.94 inHg , 1013.9 hPa
Summary: Mist
Clouds: Mostly Cloudy
Visibility: 4 miles , 6 km
Cloud details: Mostly Cloudy 3600 ft
2018/08/15 08:56 KOLU 150856Z AUTO 02003KT 4SM BR BKN036 18/18 A2994 RMK AO2 SLP132 T01830178 56001
KGRI - Grand Island, Nebraska, USA
Distance from station: WNW 61mi, 99km
Updated: Wed, 15-Aug-2018 3:53am CDT
Mist, Clear
Mist, Clear
 Wind from NW
Wind: NW 3 mph , 6 km/h
Temperature: 61°F , 16°C
Dew Point: 59°F , 15°C
Humidity: 94%
Barometer: 29.96 inHg , 1014.6 hPa
Summary: Mist
Clouds: Clear
Visibility: 6 miles , 10 km
2018/08/15 08:53 KGRI 150853Z AUTO 31003KT 6SM BR CLR 16/15 A2996 RMK AO2 SLP141 T01610150 58003
 
KHSI - Hastings, Nebraska, USA
Distance from station: W 64mi, 103km
Updated: Wed, 15-Aug-2018 3:53am CDT
Clear
Clear
 Wind from calm
Wind: Calm
Temperature: 63°F , 17°C
Dew Point: 61°F , 16°C
Humidity: 94%
Barometer: 29.97 inHg , 1014.9 hPa
Clouds: Clear
Visibility: 7 miles , 11 km
2018/08/15 08:53 KHSI 150853Z AUTO 00000KT 7SM CLR 17/16 A2997 RMK AO2 SLP138 T01670156 56001
KFET - Fremont Muni Arp, Nebraska, USA
Distance from station: NNE 66mi, 106km
Updated: Wed, 15-Aug-2018 3:55am CDT
Overcast
Overcast
 Wind from calm
Wind: Calm
Temperature: 70°F , 21°C
Dew Point: 68°F , 20°C
Humidity: 94%
Barometer: 29.92 inHg , 1013.2 hPa
Clouds: Overcast
Visibility: 7 miles , 11 km
Cloud details: Partly Cloudy 6500 ft
Overcast 10000 ft
2018/08/15 08:55 KFET 150855Z AUTO 00000KT 7SM SCT065 OVC100 21/20 A2992 RMK AO2 60004 T02050200
 
KMLE - Omaha/Millard, Nebraska, USA
Distance from station: NE 69mi, 110km
Updated: Wed, 15-Aug-2018 3:55am CDT
Light rain, Overcast
Light rain, Overcast
 Wind from NNE
Wind: NNE 5 mph , 7 km/h
Temperature: 70°F , 21°C
Dew Point: 70°F , 21°C
Humidity: 100%
Barometer: 29.89 inHg , 1012.2 hPa
Summary: Light Rain
Clouds: Overcast
Visibility: 10 miles , 16 km
Cloud details: Overcast 600 ft
2018/08/15 08:55 KMLE 150855Z AUTO 03004KT 10SM -RA OVC006 21/21 A2989 RMK AO2 P0001 60004 T02130205
KPMV - Plattsmouth Muni, Nebraska, USA
Distance from station: ENE 71mi, 114km
Updated: Wed, 15-Aug-2018 3:55am CDT
Mist, Overcast
Mist, Overcast
 Wind from calm
Wind: Calm
Temperature: 68°F , 20°C
Dew Point: 68°F , 20°C
Humidity: 100%
Barometer: 29.88 inHg , 1011.9 hPa
Summary: Mist
Clouds: Overcast
Visibility: 1 3/4 miles , 5 km
Cloud details: Overcast 200 ft
2018/08/15 08:55 KPMV 150855Z AUTO 00000KT 1 3/4SM BR OVC002 20/20 A2988 RMK AO2 T02000197
 
KAFK - Nebraska City, Nebraska, USA
Distance from station: E 72mi, 116km
Updated: Wed, 15-Aug-2018 3:55am CDT
Mist, Overcast
Mist, Overcast
 Wind from N
Wind: N 3 mph , 6 km/h
Temperature: 66°F , 19°C
Dew Point: 66°F , 19°C
Humidity: 100%
Barometer: 29.88 inHg , 1011.9 hPa
Summary: Mist
Clouds: Overcast
Visibility: 1 3/4 miles , 5 km
Cloud details: Overcast 200 ft
2018/08/15 08:55 KAFK 150855Z AUTO 01003KT 1 3/4SM BR OVC002 19/19 A2988 RMK AO2 T01940194
KOFF - Offutt Afb/Belle, Nebraska, USA
Distance from station: ENE 75mi, 121km
Updated: Wed, 15-Aug-2018 3:56am CDT
Overcast
Overcast
 Wind from NNE
Wind: NNE 8 mph , 13 km/h
Temperature: 70°F , 21°C
Dew Point: 70°F , 21°C
Humidity: 100%
Barometer: 29.87 inHg , 1011.5 hPa
Clouds: Overcast
Visibility: 10 miles , 16 km
Cloud details: Overcast 400 ft
2018/08/15 08:56 KOFF 150856Z AUTO 02007KT 10SM OVC004 21/21 A2987 RMK AO2 SLP112 T02100205 50001 $
 
KBTA - Blair Muni, Nebraska, USA
Distance from station: NE 78mi, 125km
Updated: Wed, 15-Aug-2018 3:55am CDT
Heavy rain, Overcast
Heavy rain, Overcast
 Wind from N
Wind: N 7 mph , 11 km/h
Temperature: 68°F , 20°C
Dew Point: 68°F , 20°C
Humidity: 100%
Barometer: 29.91 inHg , 1012.9 hPa
Summary: Heavy Rain
Clouds: Overcast
Visibility: 4 miles , 6 km
Cloud details: Overcast 600 ft
2018/08/15 08:55 KBTA 150855Z AUTO 01006KT 4SM +RA OVC006 20/20 A2991 RMK AO2 P0019 60040 T02010197
KCNK - Concordia, Kansas, USA
Distance from station: SSW 80mi, 129km
Updated: Wed, 15-Aug-2018 3:55am CDT
Few Clouds
Few Clouds
 Wind from N
Wind: N 5 mph , 7 km/h
Temperature: 66°F , 19°C
Dew Point: 66°F , 19°C
Humidity: 100%
Barometer: 29.92 inHg , 1013.2 hPa
Clouds: Few Clouds
Visibility: 10 miles , 16 km
Cloud details: Few Clouds 3500 ft
2018/08/15 08:55 KCNK 150855Z AUTO 35004KT 10SM FEW035 19/19 A2992 RMK AO2 SLP121 T01940189 53006 $
 
KOMA - Omaha/Eppley, Nebraska, USA
Distance from station: NE 82mi, 133km
Updated: Wed, 15-Aug-2018 3:52am CDT
Light rain, Overcast
Light rain, Overcast
 Wind from N
Wind: N 8 mph , 13 km/h
Temperature: 70°F , 21°C
Dew Point: 66°F , 19°C
Humidity: 88%
Barometer: 29.88 inHg , 1011.9 hPa
Summary: Light Rain
Clouds: Overcast
Visibility: 7 miles , 11 km
Cloud details: Overcast 700 ft
2018/08/15 08:52 KOMA 150852Z 01007KT 7SM -RA OVC007 21/19 A2988 RMK AO2 CIG 005V010 SLP111 P0005 60008 T02110194 50003 $
KBVN - Albion Muni, Nebraska, USA
Distance from station: NNW 86mi, 138km
Updated: Wed, 15-Aug-2018 3:55am CDT
Clear
Clear
 Wind from calm
Wind: Calm
Temperature: 63°F , 17°C
Dew Point: 61°F , 16°C
Humidity: 94%
Barometer: 29.97 inHg , 1014.9 hPa
Clouds: Clear
Visibility: 7 miles , 11 km
2018/08/15 08:55 KBVN 150855Z AUTO 00000KT 7SM CLR 17/16 A2997 RMK AO2 T01650161
 
KCBF - Council Bluffs, Iowa, USA
Distance from station: ENE 87mi, 139km
Updated: Wed, 15-Aug-2018 3:55am CDT
Mist, Overcast
Mist, Overcast
 Wind from NNE
Wind: NNE 8 mph , 13 km/h
Temperature: 68°F , 20°C
Dew Point: 68°F , 20°C
Humidity: 100%
Barometer: 29.89 inHg , 1012.2 hPa
Summary: Mist
Clouds: Overcast
Visibility: 5 miles , 8 km
Cloud details: Overcast 300 ft
2018/08/15 08:55 KCBF 150855Z AUTO 03007KT 5SM BR OVC003 20/20 A2989 RMK AO2 P0004
KOFK - Norfolk, Nebraska, USA
Distance from station: N 92mi, 148km
Updated: Wed, 15-Aug-2018 3:56am CDT
Clear
Clear
 Wind from ENE
Wind: ENE 3 mph , 6 km/h
Temperature: 61°F , 16°C
Dew Point: 61°F , 16°C
Humidity: 100%
Barometer: 29.95 inHg , 1014.2 hPa
Clouds: Clear
Visibility: 8 miles , 13 km
2018/08/15 08:56 KOFK 150856Z AUTO 07003KT 8SM CLR 16/16 A2995 RMK AO2 SLP131 T01610156 58000

Metar display script from Saratoga-Weather.org